createdAt,value
2023-03-02T00:00:22.763Z,15.3
2023-03-02T00:10:23.469Z,15.2
2023-03-02T00:20:24.448Z,15.3
2023-03-02T00:30:25.606Z,15.1
2023-03-02T00:40:26.155Z,15.1
2023-03-02T00:50:27.208Z,15.2
2023-03-02T01:00:29.135Z,15.2
2023-03-02T01:10:29.799Z,15.4
2023-03-02T01:20:30.679Z,15.1
2023-03-02T01:30:31.230Z,15.1
2023-03-02T01:40:31.945Z,15.2
2023-03-02T01:50:32.040Z,15.1
2023-03-02T02:00:32.150Z,15.1
2023-03-02T02:10:32.337Z,15.1
2023-03-02T02:20:32.467Z,15.1
2023-03-02T02:30:32.357Z,15.1
2023-03-02T02:40:32.258Z,15.1
2023-03-02T02:50:31.541Z,15.1
2023-03-02T03:10:08.534Z,15.2
2023-03-02T03:20:08.662Z,15.2
2023-03-02T03:30:09.769Z,15.3
2023-03-02T03:40:10.060Z,15.2
2023-03-02T03:50:11.266Z,15.1
2023-03-02T04:00:11.625Z,15.1
2023-03-02T04:10:13.397Z,15.1
2023-03-02T04:20:14.558Z,15.1
2023-03-02T04:30:16.268Z,15.1
2023-03-02T04:40:17.648Z,15.2
2023-03-02T04:50:20.128Z,15.4
2023-03-02T05:00:21.302Z,15.1
2023-03-02T05:10:21.686Z,15.1
2023-03-02T05:20:22.692Z,15.2
2023-03-02T05:30:23.456Z,15.1
2023-03-02T05:40:23.661Z,15.1
2023-03-02T05:50:23.992Z,15.1
2023-03-02T06:00:23.991Z,15.1
2023-03-02T06:10:24.982Z,15.1
2023-03-02T06:20:25.889Z,15.1
2023-03-02T06:30:26.616Z,15
2023-03-02T06:40:26.991Z,15.1
2023-03-02T06:50:28.206Z,15.1
2023-03-02T07:00:29.332Z,15.4
2023-03-02T07:10:30.164Z,15
2023-03-02T07:20:30.164Z,15.1
2023-03-02T07:30:30.947Z,15
2023-03-02T07:40:30.783Z,15.1
2023-03-02T07:50:31.716Z,15
2023-03-02T08:00:32.485Z,15.1
2023-03-02T08:10:34.110Z,15.2
2023-03-02T08:20:35.291Z,15.4
2023-03-02T08:30:35.357Z,15.1
2023-03-02T08:40:37.518Z,15.2
2023-03-02T08:50:39.246Z,15.2
2023-03-02T09:10:08.920Z,15.6
2023-03-02T09:20:13.381Z,15.3
2023-03-02T09:30:19.267Z,15.4
2023-03-02T09:40:26.355Z,15.6
2023-03-02T09:50:29.805Z,15.6
2023-03-02T10:00:37.073Z,15.5
2023-03-02T10:10:43.397Z,15.5
2023-03-02T10:20:44.721Z,15.4
2023-03-02T10:30:48.319Z,15.3
2023-03-02T10:40:50.070Z,15.5
2023-03-02T10:50:51.300Z,15.5
2023-03-02T11:00:52.764Z,15.4
2023-03-02T11:10:54.902Z,15.6
2023-03-02T11:20:53.634Z,15.4
2023-03-02T11:30:54.811Z,15.4
2023-03-02T11:40:55.058Z,15.4
2023-03-02T11:50:56.167Z,15.5
2023-03-02T12:00:57.054Z,15.4
2023-03-02T12:10:57.180Z,15.4
2023-03-02T12:20:58.196Z,15.5
2023-03-02T12:30:58.921Z,15.4
2023-03-02T12:41:00.469Z,15.5
2023-03-02T12:51:01.963Z,15.5
2023-03-02T13:01:03.007Z,15.4
2023-03-02T13:11:04.562Z,15.6
2023-03-02T13:21:05.814Z,15.9
2023-03-02T13:31:07.316Z,15.3
2023-03-02T13:41:09.434Z,15.6
2023-03-02T13:51:09.315Z,15.5
2023-03-02T14:01:11.258Z,15.6
2023-03-02T14:11:12.245Z,15.9
2023-03-02T14:21:14.114Z,15.4
2023-03-02T14:31:14.468Z,15.6
2023-03-02T14:41:14.944Z,15.5
2023-03-02T14:51:15.890Z,15.4
2023-03-02T15:10:08.235Z,15.5
2023-03-02T15:20:08.557Z,15.4
2023-03-02T15:30:09.126Z,15.6
2023-03-02T15:40:08.735Z,15.4
2023-03-02T15:50:09.726Z,15.3
2023-03-02T16:00:10.332Z,15.4
2023-03-02T16:10:10.400Z,15.3
2023-03-02T16:20:12.782Z,15.3
2023-03-02T16:30:15.003Z,15.3
2023-03-02T16:40:16.472Z,15.3
2023-03-02T16:50:18.275Z,15.7
2023-03-02T17:00:18.932Z,15.3
2023-03-02T17:10:18.729Z,15.1
2023-03-02T17:20:18.830Z,15.1
2023-03-02T17:30:19.645Z,15.3
2023-03-02T17:40:19.337Z,14.9
2023-03-02T17:50:20.170Z,14.8
2023-03-02T18:00:21.353Z,15
2023-03-02T18:10:21.280Z,14.9
2023-03-02T18:20:20.911Z,14.8
2023-03-02T18:30:21.857Z,14.9
2023-03-02T18:40:22.608Z,14.8
2023-03-02T18:50:23.214Z,15.1
2023-03-02T19:00:25.495Z,15
2023-03-02T19:10:23.740Z,14.8
2023-03-02T19:20:24.262Z,15
2023-03-02T19:30:24.718Z,14.8
2023-03-02T19:40:24.390Z,14.7
2023-03-02T19:50:24.400Z,14.7
2023-03-02T20:00:24.260Z,14.8
2023-03-02T20:10:23.865Z,14.6
2023-03-02T20:20:23.578Z,14.8
2023-03-02T20:30:25.119Z,14.9
2023-03-02T20:40:26.082Z,14.8
2023-03-02T20:50:27.283Z,15.1
2023-03-02T21:10:08.075Z,14.9
2023-03-02T21:20:07.979Z,14.9
2023-03-02T21:30:08.715Z,14.8
2023-03-02T21:40:09.526Z,14.7
2023-03-02T21:50:09.589Z,14.8
2023-03-02T22:00:11.128Z,14.8
2023-03-02T22:10:11.830Z,14.9
2023-03-02T22:20:12.818Z,14.8
2023-03-02T22:30:15.008Z,14.8
2023-03-02T22:40:16.682Z,14.8
2023-03-02T22:50:18.089Z,14.6
2023-03-02T23:00:18.214Z,14.7
2023-03-02T23:10:18.358Z,14.5
2023-03-02T23:20:19.333Z,14.6
2023-03-02T23:30:19.894Z,14.6
2023-03-02T23:40:20.947Z,14.5
2023-03-02T23:50:21.182Z,14.5
